sensor_id;sensor_type;location;lat;lon;timestamp;temperature;humidity
29211;DHT22;16250;49.932;10.980;2022-08-19T00:01:55;20.00;99.90
29211;DHT22;16250;49.932;10.980;2022-08-19T00:04:23;19.90;99.90
29211;DHT22;16250;49.932;10.980;2022-08-19T00:06:50;19.70;99.90
29211;DHT22;16250;49.932;10.980;2022-08-19T00:09:18;19.50;99.90
29211;DHT22;16250;49.932;10.980;2022-08-19T00:11:45;19.60;99.90
29211;DHT22;16250;49.932;10.980;2022-08-19T00:14:13;19.40;99.90
29211;DHT22;16250;49.932;10.980;2022-08-19T00:16:39;19.50;99.90
29211;DHT22;16250;49.932;10.980;2022-08-19T00:19:07;19.50;99.90
29211;DHT22;16250;49.932;10.980;2022-08-19T00:21:33;19.40;99.90
29211;DHT22;16250;49.932;10.980;2022-08-19T00:24:04;19.40;99.90
29211;DHT22;16250;49.932;10.980;2022-08-19T00:26:29;19.30;99.90
29211;DHT22;16250;49.932;10.980;2022-08-19T00:28:55;19.30;99.90
29211;DHT22;16250;49.932;10.980;2022-08-19T00:31:21;19.50;99.90
29211;DHT22;16250;49.932;10.980;2022-08-19T00:33:47;19.60;99.90
29211;DHT22;16250;49.932;10.980;2022-08-19T00:36:16;19.80;99.90
29211;DHT22;16250;49.932;10.980;2022-08-19T00:38:42;19.80;99.90
29211;DHT22;16250;49.932;10.980;2022-08-19T00:41:12;19.80;99.90
29211;DHT22;16250;49.932;10.980;2022-08-19T00:43:38;19.80;99.90
29211;DHT22;16250;49.932;10.980;2022-08-19T00:46:05;19.90;99.90
29211;DHT22;16250;49.932;10.980;2022-08-19T00:48:31;19.80;99.90
29211;DHT22;16250;49.932;10.980;2022-08-19T00:50:57;19.80;99.90
29211;DHT22;16250;49.932;10.980;2022-08-19T00:53:26;19.60;99.90
29211;DHT22;16250;49.932;10.980;2022-08-19T00:55:55;19.40;99.90
29211;DHT22;16250;49.932;10.980;2022-08-19T00:58:27;19.50;99.90
29211;DHT22;16250;49.932;10.980;2022-08-19T01:00:54;19.10;99.90
29211;DHT22;16250;49.932;10.980;2022-08-19T01:03:23;19.20;99.90
29211;DHT22;16250;49.932;10.980;2022-08-19T01:05:50;19.30;99.90
29211;DHT22;16250;49.932;10.980;2022-08-19T01:08:18;19.50;99.90
29211;DHT22;16250;49.932;10.980;2022-08-19T01:10:53;19.60;99.90
29211;DHT22;16250;49.932;10.980;2022-08-19T01:13:22;19.60;99.90
29211;DHT22;16250;49.932;10.980;2022-08-19T01:15:54;19.50;99.90
29211;DHT22;16250;49.932;10.980;2022-08-19T01:18:20;19.40;99.90
29211;DHT22;16250;49.932;10.980;2022-08-19T01:20:47;19.50;99.90
29211;DHT22;16250;49.932;10.980;2022-08-19T01:23:13;19.40;99.90
29211;DHT22;16250;49.932;10.980;2022-08-19T01:25:49;19.40;99.90
29211;DHT22;16250;49.932;10.980;2022-08-19T01:28:24;19.40;99.90
29211;DHT22;16250;49.932;10.980;2022-08-19T01:30:51;19.50;99.90
29211;DHT22;16250;49.932;10.980;2022-08-19T01:33:17;18.90;99.90
29211;DHT22;16250;49.932;10.980;2022-08-19T01:35:44;18.80;99.90
29211;DHT22;16250;49.932;10.980;2022-08-19T01:38:20;18.90;99.90
29211;DHT22;16250;49.932;10.980;2022-08-19T01:40:45;19.20;99.90
29211;DHT22;16250;49.932;10.980;2022-08-19T01:43:11;19.10;99.90
29211;DHT22;16250;49.932;10.980;2022-08-19T01:45:37;18.90;99.90
29211;DHT22;16250;49.932;10.980;2022-08-19T01:48:06;18.70;99.90
29211;DHT22;16250;49.932;10.980;2022-08-19T01:50:33;18.80;99.90
29211;DHT22;16250;49.932;10.980;2022-08-19T01:53:00;18.80;99.90
29211;DHT22;16250;49.932;10.980;2022-08-19T01:55:26;18.80;99.90
29211;DHT22;16250;49.932;10.980;2022-08-19T01:57:55;18.70;99.90
29211;DHT22;16250;49.932;10.980;2022-08-19T02:00:25;18.80;99.90
29211;DHT22;16250;49.932;10.980;2022-08-19T02:02:51;18.70;99.90
29211;DHT22;16250;49.932;10.980;2022-08-19T02:05:17;18.70;99.90
29211;DHT22;16250;49.932;10.980;2022-08-19T02:07:44;18.70;99.90
29211;DHT22;16250;49.932;10.980;2022-08-19T02:10:13;18.90;99.90
29211;DHT22;16250;49.932;10.980;2022-08-19T02:12:39;19.10;99.90
29211;DHT22;16250;49.932;10.980;2022-08-19T02:15:06;19.00;99.90
29211;DHT22;16250;49.932;10.980;2022-08-19T02:17:33;19.00;99.90
29211;DHT22;16250;49.932;10.980;2022-08-19T02:19:58;19.10;99.90
29211;DHT22;16250;49.932;10.980;2022-08-19T02:22:25;19.20;99.90
29211;DHT22;16250;49.932;10.980;2022-08-19T02:24:52;19.20;99.90
29211;DHT22;16250;49.932;10.980;2022-08-19T02:27:18;19.40;99.90
29211;DHT22;16250;49.932;10.980;2022-08-19T02:29:46;19.50;99.90
29211;DHT22;16250;49.932;10.980;2022-08-19T02:32:12;19.50;99.90
29211;DHT22;16250;49.932;10.980;2022-08-19T02:34:39;19.30;99.90
29211;DHT22;16250;49.932;10.980;2022-08-19T02:37:04;19.60;99.90
29211;DHT22;16250;49.932;10.980;2022-08-19T02:39:30;19.70;99.90
29211;DHT22;16250;49.932;10.980;2022-08-19T02:41:56;19.70;99.90
29211;DHT22;16250;49.932;10.980;2022-08-19T02:44:21;19.80;99.90
29211;DHT22;16250;49.932;10.980;2022-08-19T02:46:48;19.80;99.90
29211;DHT22;16250;49.932;10.980;2022-08-19T02:49:15;19.60;99.90
29211;DHT22;16250;49.932;10.980;2022-08-19T02:51:43;19.70;99.90
29211;DHT22;16250;49.932;10.980;2022-08-19T02:54:10;19.70;99.90
29211;DHT22;16250;49.932;10.980;2022-08-19T02:56:37;19.60;99.90
29211;DHT22;16250;49.932;10.980;2022-08-19T02:59:04;19.70;99.90
29211;DHT22;16250;49.932;10.980;2022-08-19T03:01:37;19.60;99.90
29211;DHT22;16250;49.932;10.980;2022-08-19T03:04:07;19.60;99.90
29211;DHT22;16250;49.932;10.980;2022-08-19T03:06:36;19.70;99.90
29211;DHT22;16250;49.932;10.980;2022-08-19T03:09:02;19.60;99.90
29211;DHT22;16250;49.932;10.980;2022-08-19T03:11:30;19.60;99.90
29211;DHT22;16250;49.932;10.980;2022-08-19T03:13:57;19.70;99.90
29211;DHT22;16250;49.932;10.980;2022-08-19T03:16:24;19.50;99.90
29211;DHT22;16250;49.932;10.980;2022-08-19T03:18:51;19.30;99.90
29211;DHT22;16250;49.932;10.980;2022-08-19T03:21:19;19.40;99.90
29211;DHT22;16250;49.932;10.980;2022-08-19T03:23:45;19.60;99.90
29211;DHT22;16250;49.932;10.980;2022-08-19T03:26:11;19.80;99.90
29211;DHT22;16250;49.932;10.980;2022-08-19T03:28:37;19.70;99.90
29211;DHT22;16250;49.932;10.980;2022-08-19T03:31:10;19.90;99.90
29211;DHT22;16250;49.932;10.980;2022-08-19T03:33:37;19.90;99.90
29211;DHT22;16250;49.932;10.980;2022-08-19T03:36:12;19.70;99.90
29211;DHT22;16250;49.932;10.980;2022-08-19T03:38:44;19.70;99.90
29211;DHT22;16250;49.932;10.980;2022-08-19T03:41:13;19.40;99.90
29211;DHT22;16250;49.932;10.980;2022-08-19T03:43:41;19.70;99.90
29211;DHT22;16250;49.932;10.980;2022-08-19T03:46:11;19.80;99.90
29211;DHT22;16250;49.932;10.980;2022-08-19T03:48:38;19.90;99.90
29211;DHT22;16250;49.932;10.980;2022-08-19T03:51:06;19.80;99.90
29211;DHT22;16250;49.932;10.980;2022-08-19T03:53:33;19.70;99.90
29211;DHT22;16250;49.932;10.980;2022-08-19T03:55:59;19.40;99.90
29211;DHT22;16250;49.932;10.980;2022-08-19T03:58:29;19.20;99.90
29211;DHT22;16250;49.932;10.980;2022-08-19T04:00:58;19.30;99.90
29211;DHT22;16250;49.932;10.980;2022-08-19T04:03:25;19.50;99.90
29211;DHT22;16250;49.932;10.980;2022-08-19T04:05:52;19.50;99.90
29211;DHT22;16250;49.932;10.980;2022-08-19T04:08:19;19.50;99.90
29211;DHT22;16250;49.932;10.980;2022-08-19T04:10:48;19.40;99.90
29211;DHT22;16250;49.932;10.980;2022-08-19T04:13:18;19.40;99.90
29211;DHT22;16250;49.932;10.980;2022-08-19T04:15:45;19.50;99.90
29211;DHT22;16250;49.932;10.980;2022-08-19T04:18:11;19.40;99.90
29211;DHT22;16250;49.932;10.980;2022-08-19T04:20:45;19.40;99.90
29211;DHT22;16250;49.932;10.980;2022-08-19T04:23:12;19.30;99.90
29211;DHT22;16250;49.932;10.980;2022-08-19T04:25:42;19.20;99.90
29211;DHT22;16250;49.932;10.980;2022-08-19T04:28:09;19.20;99.90
29211;DHT22;16250;49.932;10.980;2022-08-19T04:30:44;19.20;99.90
29211;DHT22;16250;49.932;10.980;2022-08-19T04:33:13;19.20;99.90
29211;DHT22;16250;49.932;10.980;2022-08-19T04:35:41;19.50;99.90
29211;DHT22;16250;49.932;10.980;2022-08-19T04:38:08;19.40;99.90
29211;DHT22;16250;49.932;10.980;2022-08-19T04:40:34;19.40;99.90
29211;DHT22;16250;49.932;10.980;2022-08-19T04:43:22;19.50;99.90
29211;DHT22;16250;49.932;10.980;2022-08-19T04:45:48;19.60;99.90
29211;DHT22;16250;49.932;10.980;2022-08-19T04:48:14;19.50;99.90
29211;DHT22;16250;49.932;10.980;2022-08-19T04:50:41;19.40;99.90
29211;DHT22;16250;49.932;10.980;2022-08-19T04:53:07;19.50;99.90
29211;DHT22;16250;49.932;10.980;2022-08-19T04:55:33;19.50;99.90
29211;DHT22;16250;49.932;10.980;2022-08-19T04:58:01;19.50;99.90
29211;DHT22;16250;49.932;10.980;2022-08-19T05:00:27;19.70;99.90
29211;DHT22;16250;49.932;10.980;2022-08-19T05:02:53;19.60;99.90
29211;DHT22;16250;49.932;10.980;2022-08-19T05:05:18;19.70;99.90
29211;DHT22;16250;49.932;10.980;2022-08-19T05:07:45;19.70;99.90
29211;DHT22;16250;49.932;10.980;2022-08-19T05:10:10;19.70;99.90
29211;DHT22;16250;49.932;10.980;2022-08-19T05:12:36;19.80;99.90
29211;DHT22;16250;49.932;10.980;2022-08-19T05:15:04;19.90;99.90
29211;DHT22;16250;49.932;10.980;2022-08-19T05:17:31;19.90;99.90
29211;DHT22;16250;49.932;10.980;2022-08-19T05:19:57;19.90;99.90
29211;DHT22;16250;49.932;10.980;2022-08-19T05:22:42;20.00;99.90
29211;DHT22;16250;49.932;10.980;2022-08-19T05:25:11;20.00;99.90
29211;DHT22;16250;49.932;10.980;2022-08-19T05:27:37;19.90;99.90
29211;DHT22;16250;49.932;10.980;2022-08-19T05:30:04;19.80;99.90
29211;DHT22;16250;49.932;10.980;2022-08-19T05:32:30;19.80;99.90
29211;DHT22;16250;49.932;10.980;2022-08-19T05:34:55;19.80;99.90
29211;DHT22;16250;49.932;10.980;2022-08-19T05:37:21;19.60;99.90
29211;DHT22;16250;49.932;10.980;2022-08-19T05:39:47;19.70;99.90
29211;DHT22;16250;49.932;10.980;2022-08-19T05:42:15;19.60;99.90
29211;DHT22;16250;49.932;10.980;2022-08-19T05:44:42;19.70;99.90
29211;DHT22;16250;49.932;10.980;2022-08-19T05:47:11;19.60;99.90
29211;DHT22;16250;49.932;10.980;2022-08-19T05:49:37;19.70;99.90
29211;DHT22;16250;49.932;10.980;2022-08-19T05:52:05;19.70;99.90
29211;DHT22;16250;49.932;10.980;2022-08-19T05:54:32;19.70;99.90
29211;DHT22;16250;49.932;10.980;2022-08-19T05:56:57;19.70;99.90
29211;DHT22;16250;49.932;10.980;2022-08-19T05:59:23;19.70;99.90
29211;DHT22;16250;49.932;10.980;2022-08-19T06:01:51;19.80;99.90
29211;DHT22;16250;49.932;10.980;2022-08-19T06:04:19;19.70;99.90
29211;DHT22;16250;49.932;10.980;2022-08-19T06:06:46;19.90;99.90
29211;DHT22;16250;49.932;10.980;2022-08-19T06:09:12;19.50;99.90
29211;DHT22;16250;49.932;10.980;2022-08-19T06:14:07;19.80;99.90
29211;DHT22;16250;49.932;10.980;2022-08-19T06:16:37;19.70;99.90
29211;DHT22;16250;49.932;10.980;2022-08-19T06:19:06;19.50;99.90
29211;DHT22;16250;49.932;10.980;2022-08-19T06:21:33;19.30;99.90
29211;DHT22;16250;49.932;10.980;2022-08-19T06:24:00;19.60;99.90
29211;DHT22;16250;49.932;10.980;2022-08-19T06:26:26;19.70;99.90
29211;DHT22;16250;49.932;10.980;2022-08-19T06:28:52;19.40;99.90
29211;DHT22;16250;49.932;10.980;2022-08-19T06:31:22;19.60;99.90
29211;DHT22;16250;49.932;10.980;2022-08-19T06:33:48;19.70;99.90
29211;DHT22;16250;49.932;10.980;2022-08-19T06:36:25;19.90;99.90
29211;DHT22;16250;49.932;10.980;2022-08-19T06:38:56;19.70;99.90
29211;DHT22;16250;49.932;10.980;2022-08-19T06:41:25;19.80;99.90
29211;DHT22;16250;49.932;10.980;2022-08-19T06:43:51;19.90;99.90
29211;DHT22;16250;49.932;10.980;2022-08-19T06:46:18;19.80;99.90
29211;DHT22;16250;49.932;10.980;2022-08-19T06:48:45;19.80;99.90
29211;DHT22;16250;49.932;10.980;2022-08-19T06:51:16;19.90;99.90
29211;DHT22;16250;49.932;10.980;2022-08-19T06:53:47;19.90;99.90
29211;DHT22;16250;49.932;10.980;2022-08-19T06:56:18;19.70;99.90
29211;DHT22;16250;49.932;10.980;2022-08-19T06:58:44;19.60;99.90
29211;DHT22;16250;49.932;10.980;2022-08-19T07:01:12;19.60;99.90
29211;DHT22;16250;49.932;10.980;2022-08-19T07:03:39;19.70;99.90
29211;DHT22;16250;49.932;10.980;2022-08-19T07:06:11;19.80;99.90
29211;DHT22;16250;49.932;10.980;2022-08-19T07:08:37;20.00;99.90
29211;DHT22;16250;49.932;10.980;2022-08-19T07:11:08;20.00;99.90
29211;DHT22;16250;49.932;10.980;2022-08-19T07:13:35;20.00;99.90
29211;DHT22;16250;49.932;10.980;2022-08-19T07:16:11;19.90;99.90
29211;DHT22;16250;49.932;10.980;2022-08-19T07:18:37;20.00;99.90
29211;DHT22;16250;49.932;10.980;2022-08-19T07:21:21;19.90;99.90
29211;DHT22;16250;49.932;10.980;2022-08-19T07:23:48;20.00;99.90
29211;DHT22;16250;49.932;10.980;2022-08-19T07:26:30;20.00;99.90
29211;DHT22;16250;49.932;10.980;2022-08-19T07:28:57;19.90;99.90
29211;DHT22;16250;49.932;10.980;2022-08-19T07:31:26;19.80;99.90
29211;DHT22;16250;49.932;10.980;2022-08-19T07:33:56;19.90;99.90
29211;DHT22;16250;49.932;10.980;2022-08-19T07:36:25;19.70;99.90
29211;DHT22;16250;49.932;10.980;2022-08-19T07:38:54;19.80;99.90
29211;DHT22;16250;49.932;10.980;2022-08-19T07:41:23;19.70;99.90
29211;DHT22;16250;49.932;10.980;2022-08-19T07:43:50;20.10;99.90
29211;DHT22;16250;49.932;10.980;2022-08-19T07:46:18;20.20;99.90
29211;DHT22;16250;49.932;10.980;2022-08-19T07:48:46;20.00;99.90
29211;DHT22;16250;49.932;10.980;2022-08-19T07:51:15;20.10;99.90
29211;DHT22;16250;49.932;10.980;2022-08-19T07:53:40;19.90;99.90
29211;DHT22;16250;49.932;10.980;2022-08-19T07:56:07;19.80;99.90
29211;DHT22;16250;49.932;10.980;2022-08-19T07:58:35;19.80;99.90
29211;DHT22;16250;49.932;10.980;2022-08-19T08:01:05;19.70;99.90
29211;DHT22;16250;49.932;10.980;2022-08-19T08:03:35;19.80;99.90
29211;DHT22;16250;49.932;10.980;2022-08-19T08:06:19;20.10;99.90
29211;DHT22;16250;49.932;10.980;2022-08-19T08:09:04;20.10;99.90
29211;DHT22;16250;49.932;10.980;2022-08-19T08:11:47;20.30;99.90
29211;DHT22;16250;49.932;10.980;2022-08-19T08:14:27;20.50;99.90
29211;DHT22;16250;49.932;10.980;2022-08-19T08:16:53;20.50;99.90
29211;DHT22;16250;49.932;10.980;2022-08-19T08:19:21;20.40;99.90
29211;DHT22;16250;49.932;10.980;2022-08-19T08:21:49;20.60;99.90
29211;DHT22;16250;49.932;10.980;2022-08-19T08:24:15;20.90;99.90
29211;DHT22;16250;49.932;10.980;2022-08-19T08:26:41;20.90;99.90
29211;DHT22;16250;49.932;10.980;2022-08-19T08:29:12;21.10;99.90
29211;DHT22;16250;49.932;10.980;2022-08-19T08:31:40;21.30;99.90
29211;DHT22;16250;49.932;10.980;2022-08-19T08:34:06;21.30;99.90
29211;DHT22;16250;49.932;10.980;2022-08-19T08:36:32;21.30;99.90
29211;DHT22;16250;49.932;10.980;2022-08-19T08:39:00;21.50;99.90
29211;DHT22;16250;49.932;10.980;2022-08-19T08:42:01;21.40;99.90
29211;DHT22;16250;49.932;10.980;2022-08-19T08:44:53;21.70;99.90
29211;DHT22;16250;49.932;10.980;2022-08-19T08:47:23;21.70;99.90
29211;DHT22;16250;49.932;10.980;2022-08-19T08:49:56;21.00;99.90
29211;DHT22;16250;49.932;10.980;2022-08-19T08:52:36;21.10;99.90
29211;DHT22;16250;49.932;10.980;2022-08-19T08:55:27;21.30;99.90
29211;DHT22;16250;49.932;10.980;2022-08-19T08:58:00;21.00;99.90
29211;DHT22;16250;49.932;10.980;2022-08-19T09:00:33;20.90;99.90
29211;DHT22;16250;49.932;10.980;2022-08-19T09:02:59;20.90;99.90
29211;DHT22;16250;49.932;10.980;2022-08-19T09:05:59;21.20;99.90
29211;DHT22;16250;49.932;10.980;2022-08-19T09:11:15;21.50;99.90
29211;DHT22;16250;49.932;10.980;2022-08-19T09:16:27;21.20;99.90
29211;DHT22;16250;49.932;10.980;2022-08-19T09:18:56;21.00;99.90
29211;DHT22;16250;49.932;10.980;2022-08-19T09:21:23;20.90;99.90
29211;DHT22;16250;49.932;10.980;2022-08-19T09:23:50;21.10;99.90
29211;DHT22;16250;49.932;10.980;2022-08-19T09:26:18;20.80;99.90
29211;DHT22;16250;49.932;10.980;2022-08-19T09:28:47;20.80;99.90
29211;DHT22;16250;49.932;10.980;2022-08-19T09:31:18;21.10;99.90
29211;DHT22;16250;49.932;10.980;2022-08-19T09:33:44;21.10;99.90
29211;DHT22;16250;49.932;10.980;2022-08-19T09:36:12;21.30;99.90
29211;DHT22;16250;49.932;10.980;2022-08-19T09:38:39;21.30;99.90
29211;DHT22;16250;49.932;10.980;2022-08-19T09:41:07;21.30;99.90
29211;DHT22;16250;49.932;10.980;2022-08-19T09:43:34;21.40;99.90
29211;DHT22;16250;49.932;10.980;2022-08-19T09:46:03;21.60;99.90
29211;DHT22;16250;49.932;10.980;2022-08-19T09:48:31;21.40;99.90
29211;DHT22;16250;49.932;10.980;2022-08-19T09:51:03;21.20;99.90
29211;DHT22;16250;49.932;10.980;2022-08-19T09:53:29;21.20;99.90
29211;DHT22;16250;49.932;10.980;2022-08-19T09:55:55;21.20;99.90
29211;DHT22;16250;49.932;10.980;2022-08-19T09:58:21;21.40;99.90
29211;DHT22;16250;49.932;10.980;2022-08-19T10:00:48;21.40;99.90
29211;DHT22;16250;49.932;10.980;2022-08-19T10:03:13;21.40;99.90
29211;DHT22;16250;49.932;10.980;2022-08-19T10:05:39;21.60;99.90
29211;DHT22;16250;49.932;10.980;2022-08-19T10:08:14;21.70;99.90
29211;DHT22;16250;49.932;10.980;2022-08-19T10:10:41;21.30;99.90
29211;DHT22;16250;49.932;10.980;2022-08-19T10:13:10;21.10;99.90
29211;DHT22;16250;49.932;10.980;2022-08-19T10:15:36;21.10;99.90
29211;DHT22;16250;49.932;10.980;2022-08-19T10:18:05;21.10;99.90
29211;DHT22;16250;49.932;10.980;2022-08-19T10:20:31;21.10;99.90
29211;DHT22;16250;49.932;10.980;2022-08-19T10:22:57;21.10;99.90
29211;DHT22;16250;49.932;10.980;2022-08-19T10:25:25;21.10;99.90
29211;DHT22;16250;49.932;10.980;2022-08-19T10:27:52;21.10;99.90
29211;DHT22;16250;49.932;10.980;2022-08-19T10:30:18;20.80;99.90
29211;DHT22;16250;49.932;10.980;2022-08-19T10:32:44;21.20;99.90
29211;DHT22;16250;49.932;10.980;2022-08-19T10:35:11;21.40;99.90
29211;DHT22;16250;49.932;10.980;2022-08-19T10:37:38;21.50;99.90
29211;DHT22;16250;49.932;10.980;2022-08-19T10:40:06;21.50;99.90
29211;DHT22;16250;49.932;10.980;2022-08-19T10:42:34;21.60;99.90
29211;DHT22;16250;49.932;10.980;2022-08-19T10:45:00;21.40;99.90
29211;DHT22;16250;49.932;10.980;2022-08-19T10:47:25;21.30;99.90
29211;DHT22;16250;49.932;10.980;2022-08-19T10:49:53;21.20;99.90
29211;DHT22;16250;49.932;10.980;2022-08-19T10:52:42;21.20;99.90
29211;DHT22;16250;49.932;10.980;2022-08-19T10:55:08;21.10;99.90
29211;DHT22;16250;49.932;10.980;2022-08-19T10:57:52;21.40;99.90
29211;DHT22;16250;49.932;10.980;2022-08-19T11:00:19;21.60;99.90
29211;DHT22;16250;49.932;10.980;2022-08-19T11:02:45;21.60;99.90
29211;DHT22;16250;49.932;10.980;2022-08-19T11:05:12;21.90;99.90
29211;DHT22;16250;49.932;10.980;2022-08-19T11:07:39;21.90;99.90
29211;DHT22;16250;49.932;10.980;2022-08-19T11:10:06;21.80;99.90
29211;DHT22;16250;49.932;10.980;2022-08-19T11:12:32;21.90;99.90
29211;DHT22;16250;49.932;10.980;2022-08-19T11:14:58;22.10;99.90
29211;DHT22;16250;49.932;10.980;2022-08-19T11:17:24;22.20;99.90
29211;DHT22;16250;49.932;10.980;2022-08-19T11:19:49;22.20;99.90
29211;DHT22;16250;49.932;10.980;2022-08-19T11:22:15;22.10;99.90
29211;DHT22;16250;49.932;10.980;2022-08-19T11:24:42;22.20;99.90
29211;DHT22;16250;49.932;10.980;2022-08-19T11:27:09;22.30;99.90
29211;DHT22;16250;49.932;10.980;2022-08-19T11:29:37;22.20;99.90
29211;DHT22;16250;49.932;10.980;2022-08-19T11:32:09;22.20;99.90
29211;DHT22;16250;49.932;10.980;2022-08-19T11:34:35;22.00;99.90
29211;DHT22;16250;49.932;10.980;2022-08-19T11:37:01;22.10;99.90
29211;DHT22;16250;49.932;10.980;2022-08-19T11:39:30;21.90;99.90
29211;DHT22;16250;49.932;10.980;2022-08-19T11:41:57;22.00;99.90
29211;DHT22;16250;49.932;10.980;2022-08-19T11:44:23;22.00;99.90
29211;DHT22;16250;49.932;10.980;2022-08-19T11:46:49;22.00;99.90
29211;DHT22;16250;49.932;10.980;2022-08-19T11:49:19;21.80;99.90
29211;DHT22;16250;49.932;10.980;2022-08-19T11:51:46;21.80;99.90
29211;DHT22;16250;49.932;10.980;2022-08-19T11:54:13;21.80;99.90
29211;DHT22;16250;49.932;10.980;2022-08-19T11:56:40;21.90;99.90
29211;DHT22;16250;49.932;10.980;2022-08-19T11:59:06;21.90;99.90
29211;DHT22;16250;49.932;10.980;2022-08-19T12:01:33;22.10;99.90
29211;DHT22;16250;49.932;10.980;2022-08-19T12:03:59;22.10;99.90
29211;DHT22;16250;49.932;10.980;2022-08-19T12:06:30;22.30;99.90
29211;DHT22;16250;49.932;10.980;2022-08-19T12:08:58;22.10;99.90
29211;DHT22;16250;49.932;10.980;2022-08-19T12:11:25;22.00;99.90
29211;DHT22;16250;49.932;10.980;2022-08-19T12:13:51;21.90;99.90
29211;DHT22;16250;49.932;10.980;2022-08-19T12:16:26;21.80;99.90
29211;DHT22;16250;49.932;10.980;2022-08-19T12:18:53;21.80;99.90
29211;DHT22;16250;49.932;10.980;2022-08-19T12:21:23;21.80;99.90
29211;DHT22;16250;49.932;10.980;2022-08-19T12:23:50;21.90;99.90
29211;DHT22;16250;49.932;10.980;2022-08-19T12:26:17;21.90;99.90
29211;DHT22;16250;49.932;10.980;2022-08-19T12:28:43;21.70;99.90
29211;DHT22;16250;49.932;10.980;2022-08-19T12:31:10;21.60;99.90
29211;DHT22;16250;49.932;10.980;2022-08-19T12:33:38;21.20;99.90
29211;DHT22;16250;49.932;10.980;2022-08-19T12:36:07;21.20;99.90
29211;DHT22;16250;49.932;10.980;2022-08-19T12:38:33;21.20;99.90
29211;DHT22;16250;49.932;10.980;2022-08-19T12:41:00;21.30;99.90
29211;DHT22;16250;49.932;10.980;2022-08-19T12:43:25;21.30;99.90
29211;DHT22;16250;49.932;10.980;2022-08-19T12:45:51;21.40;99.90
29211;DHT22;16250;49.932;10.980;2022-08-19T12:48:17;21.40;99.90
29211;DHT22;16250;49.932;10.980;2022-08-19T12:50:45;21.20;99.90
29211;DHT22;16250;49.932;10.980;2022-08-19T12:53:11;20.90;99.90
29211;DHT22;16250;49.932;10.980;2022-08-19T12:55:37;20.90;99.90
29211;DHT22;16250;49.932;10.980;2022-08-19T12:58:03;20.80;99.90
29211;DHT22;16250;49.932;10.980;2022-08-19T13:00:29;20.80;99.90
29211;DHT22;16250;49.932;10.980;2022-08-19T13:02:55;21.00;99.90
29211;DHT22;16250;49.932;10.980;2022-08-19T13:05:23;21.00;99.90
29211;DHT22;16250;49.932;10.980;2022-08-19T13:07:51;20.70;99.90
29211;DHT22;16250;49.932;10.980;2022-08-19T13:10:19;20.80;99.90
29211;DHT22;16250;49.932;10.980;2022-08-19T13:12:47;20.60;99.90
29211;DHT22;16250;49.932;10.980;2022-08-19T13:15:14;20.20;99.90
29211;DHT22;16250;49.932;10.980;2022-08-19T13:17:40;20.40;99.90
29211;DHT22;16250;49.932;10.980;2022-08-19T13:20:09;20.30;99.90
29211;DHT22;16250;49.932;10.980;2022-08-19T13:22:35;20.40;99.90
29211;DHT22;16250;49.932;10.980;2022-08-19T13:25:03;20.40;99.90
29211;DHT22;16250;49.932;10.980;2022-08-19T13:27:29;20.50;99.90
29211;DHT22;16250;49.932;10.980;2022-08-19T13:29:55;20.60;99.90
29211;DHT22;16250;49.932;10.980;2022-08-19T13:32:39;20.50;99.90
29211;DHT22;16250;49.932;10.980;2022-08-19T13:35:23;20.70;99.90
29211;DHT22;16250;49.932;10.980;2022-08-19T13:37:48;20.80;99.90
29211;DHT22;16250;49.932;10.980;2022-08-19T13:40:18;21.00;99.90
29211;DHT22;16250;49.932;10.980;2022-08-19T13:42:47;20.90;99.90
29211;DHT22;16250;49.932;10.980;2022-08-19T13:45:15;21.00;99.90
29211;DHT22;16250;49.932;10.980;2022-08-19T13:47:41;21.10;99.90
29211;DHT22;16250;49.932;10.980;2022-08-19T13:50:15;21.10;99.90
29211;DHT22;16250;49.932;10.980;2022-08-19T13:52:41;21.20;99.90
29211;DHT22;16250;49.932;10.980;2022-08-19T13:55:08;21.30;99.90
29211;DHT22;16250;49.932;10.980;2022-08-19T13:57:34;21.20;99.90
29211;DHT22;16250;49.932;10.980;2022-08-19T14:00:00;21.30;99.90
29211;DHT22;16250;49.932;10.980;2022-08-19T14:02:26;21.20;99.90
29211;DHT22;16250;49.932;10.980;2022-08-19T14:04:52;21.60;99.90
29211;DHT22;16250;49.932;10.980;2022-08-19T14:07:18;21.50;99.90
29211;DHT22;16250;49.932;10.980;2022-08-19T14:09:43;21.50;99.90
29211;DHT22;16250;49.932;10.980;2022-08-19T14:12:09;21.50;99.90
29211;DHT22;16250;49.932;10.980;2022-08-19T14:14:38;21.40;99.90
29211;DHT22;16250;49.932;10.980;2022-08-19T14:17:08;21.40;99.90
29211;DHT22;16250;49.932;10.980;2022-08-19T14:19:34;21.50;99.90
29211;DHT22;16250;49.932;10.980;2022-08-19T14:22:00;21.70;99.90
29211;DHT22;16250;49.932;10.980;2022-08-19T14:24:26;21.50;99.90
29211;DHT22;16250;49.932;10.980;2022-08-19T14:26:52;21.50;99.90
29211;DHT22;16250;49.932;10.980;2022-08-19T14:29:18;21.30;99.90
29211;DHT22;16250;49.932;10.980;2022-08-19T14:31:43;21.30;99.90
29211;DHT22;16250;49.932;10.980;2022-08-19T14:34:09;21.40;99.90
29211;DHT22;16250;49.932;10.980;2022-08-19T14:36:37;21.50;99.90
29211;DHT22;16250;49.932;10.980;2022-08-19T14:39:03;21.40;99.90
29211;DHT22;16250;49.932;10.980;2022-08-19T14:41:29;21.40;99.90
29211;DHT22;16250;49.932;10.980;2022-08-19T14:43:56;21.20;99.90
29211;DHT22;16250;49.932;10.980;2022-08-19T14:46:24;21.20;99.90
29211;DHT22;16250;49.932;10.980;2022-08-19T14:48:51;21.30;99.90
29211;DHT22;16250;49.932;10.980;2022-08-19T14:51:17;21.30;99.90
29211;DHT22;16250;49.932;10.980;2022-08-19T14:53:45;21.20;99.90
29211;DHT22;16250;49.932;10.980;2022-08-19T14:56:16;21.20;99.90
29211;DHT22;16250;49.932;10.980;2022-08-19T14:58:42;21.00;99.90
29211;DHT22;16250;49.932;10.980;2022-08-19T15:01:09;21.10;99.90
29211;DHT22;16250;49.932;10.980;2022-08-19T15:03:36;21.30;99.90
29211;DHT22;16250;49.932;10.980;2022-08-19T15:06:04;21.20;99.90
29211;DHT22;16250;49.932;10.980;2022-08-19T15:08:32;21.30;99.90
29211;DHT22;16250;49.932;10.980;2022-08-19T15:11:00;21.30;99.90
29211;DHT22;16250;49.932;10.980;2022-08-19T15:13:27;21.40;99.90
29211;DHT22;16250;49.932;10.980;2022-08-19T15:15:53;21.30;99.90
29211;DHT22;16250;49.932;10.980;2022-08-19T15:18:19;21.40;99.90
29211;DHT22;16250;49.932;10.980;2022-08-19T15:20:46;21.40;99.90
29211;DHT22;16250;49.932;10.980;2022-08-19T15:23:14;21.20;99.90
29211;DHT22;16250;49.932;10.980;2022-08-19T15:25:40;21.30;99.90
29211;DHT22;16250;49.932;10.980;2022-08-19T15:28:07;21.20;99.90
29211;DHT22;16250;49.932;10.980;2022-08-19T15:30:34;20.90;99.90